Time;durP1;ratioP1;P1;durP2;ratioP2;P2;SDS_P1;SDS_P2;PMS_P1;PMS_P2;Temp;Humidity;BMP_temperature;BMP_pressure;BME280_temperature;BME280_humidity;BME280_pressure;Samples;Min_cycle;Max_cycle;Signal;HPM_P1;HPM_P2
2022/03/24 00:00:30;;;;;;;12.05;9.65;;;3.20;99.90;;;;;;7378272;19;21051;-69
2022/03/24 00:02:56;;;;;;;12.43;10.30;;;3.20;99.90;;;;;;7377920;19;20337;-68
2022/03/24 00:05:22;;;;;;;11.43;9.48;;;3.10;99.90;;;;;;7380748;19;20340;-68
2022/03/24 00:07:47;;;;;;;13.83;10.53;;;3.00;99.90;;;;;;7376061;19;20413;-68
2022/03/24 00:10:13;;;;;;;13.43;10.30;;;3.00;99.90;;;;;;7378853;19;20415;-69
2022/03/24 00:12:39;;;;;;;13.90;10.10;;;2.90;99.90;;;;;;7377362;19;20442;-69
2022/03/24 00:15:06;;;;;;;12.73;10.18;;;2.80;99.90;;;;;;7371086;19;20336;-69
2022/03/24 00:17:32;;;;;;;13.53;10.30;;;2.90;99.90;;;;;;7377532;19;20312;-69
2022/03/24 00:19:58;;;;;;;10.23;9.13;;;2.60;99.90;;;;;;7377354;19;20661;-69
2022/03/24 00:22:23;;;;;;;12.47;9.83;;;2.60;99.90;;;;;;7376735;19;20305;-68
2022/03/24 00:24:49;;;;;;;14.23;10.32;;;2.70;99.90;;;;;;7378882;19;20344;-69
2022/03/24 00:27:15;;;;;;;13.98;10.18;;;2.70;99.90;;;;;;7375851;19;20412;-68
2022/03/24 00:29:42;;;;;;;11.55;9.23;;;2.70;99.90;;;;;;7380942;19;20316;-68
2022/03/24 00:32:08;;;;;;;12.48;10.02;;;2.70;99.90;;;;;;7374675;19;20362;-68
2022/03/24 00:34:33;;;;;;;13.35;10.50;;;2.60;99.90;;;;;;7377024;19;20304;-68
2022/03/24 00:36:59;;;;;;;11.30;9.23;;;2.50;99.90;;;;;;7377661;19;20356;-68
2022/03/24 00:39:25;;;;;;;13.87;10.30;;;2.50;99.90;;;;;;7376431;19;20340;-69
2022/03/24 00:41:50;;;;;;;13.00;9.88;;;2.50;99.90;;;;;;7374026;19;20308;-68
2022/03/24 00:44:16;;;;;;;13.90;10.35;;;2.50;99.90;;;;;;7377212;19;20336;-68
2022/03/24 00:46:42;;;;;;;13.38;10.25;;;2.50;99.90;;;;;;7375679;19;20357;-68
2022/03/24 00:49:08;;;;;;;12.73;9.80;;;2.40;99.90;;;;;;7381274;19;20349;-68
2022/03/24 00:51:34;;;;;;;11.50;9.20;;;2.50;99.90;;;;;;7383031;19;20726;-68
2022/03/24 00:54:01;;;;;;;13.45;10.02;;;2.40;99.90;;;;;;7379473;19;20880;-69
2022/03/24 00:56:26;;;;;;;12.57;9.68;;;2.40;99.90;;;;;;7384466;19;20345;-68
2022/03/24 00:58:52;;;;;;;13.82;11.00;;;2.30;99.90;;;;;;7371825;19;20865;-67
2022/03/24 01:01:20;;;;;;;11.13;9.05;;;2.30;99.90;;;;;;7381536;19;20308;-67
2022/03/24 01:03:46;;;;;;;13.60;9.77;;;2.20;99.90;;;;;;7381956;19;20320;-67
2022/03/24 01:06:16;;;;;;;11.43;8.93;;;2.20;99.90;;;;;;7383803;19;20328;-68
2022/03/24 01:08:43;;;;;;;11.45;10.23;;;2.10;99.90;;;;;;7382835;19;20312;-68
2022/03/24 01:11:08;;;;;;;11.18;8.80;;;2.20;99.90;;;;;;7383895;19;20344;-69
2022/03/24 01:13:36;;;;;;;13.18;9.73;;;2.10;99.90;;;;;;7376838;19;20356;-69
2022/03/24 01:16:03;;;;;;;11.85;9.52;;;2.10;99.90;;;;;;7384277;19;20339;-69
2022/03/24 01:18:32;;;;;;;13.25;10.13;;;2.00;99.90;;;;;;7383860;19;20332;-69
2022/03/24 01:21:00;;;;;;;12.68;9.10;;;2.00;99.90;;;;;;7383526;19;20341;-69
2022/03/24 01:23:26;;;;;;;15.13;9.85;;;2.00;99.90;;;;;;7381364;19;20878;-69
2022/03/24 01:25:54;;;;;;;14.15;9.18;;;2.00;99.90;;;;;;7382978;19;20803;-69
2022/03/24 01:28:21;;;;;;;14.25;10.23;;;2.00;99.90;;;;;;7380356;19;20747;-69
2022/03/24 01:30:46;;;;;;;11.85;9.27;;;1.90;99.90;;;;;;7381506;19;20316;-69
2022/03/24 01:33:12;;;;;;;11.45;9.18;;;1.80;99.90;;;;;;7382305;19;20338;-69
2022/03/24 01:35:39;;;;;;;13.30;9.60;;;1.70;99.90;;;;;;7382043;19;20692;-69
2022/03/24 01:38:05;;;;;;;10.75;8.63;;;1.80;99.90;;;;;;7379636;19;20340;-69
2022/03/24 01:40:30;;;;;;;9.80;8.77;;;1.70;99.90;;;;;;7383850;19;20400;-69
2022/03/24 01:42:56;;;;;;;13.35;9.65;;;1.70;99.90;;;;;;7379303;19;20361;-69
2022/03/24 01:45:22;;;;;;;12.93;10.17;;;1.70;99.90;;;;;;7382188;19;20301;-70
2022/03/24 01:47:47;;;;;;;11.73;9.53;;;1.60;99.90;;;;;;7382123;19;20324;-69
2022/03/24 01:50:15;;;;;;;11.65;9.60;;;1.50;99.90;;;;;;7383512;19;20346;-69
2022/03/24 01:52:43;;;;;;;15.25;10.40;;;1.50;99.90;;;;;;7381456;19;20841;-69
2022/03/24 01:55:09;;;;;;;13.25;9.75;;;1.40;99.90;;;;;;7383478;19;20405;-70
2022/03/24 01:57:35;;;;;;;13.03;10.10;;;1.40;99.90;;;;;;7380846;19;20372;-69
2022/03/24 02:00:02;;;;;;;16.63;10.20;;;1.40;99.90;;;;;;7379931;19;20970;-69
2022/03/24 02:02:27;;;;;;;13.80;10.15;;;1.40;99.90;;;;;;7380282;19;20333;-69
2022/03/24 02:04:53;;;;;;;13.07;10.85;;;1.30;99.90;;;;;;7381920;19;20346;-69
2022/03/24 02:07:26;;;;;;;15.43;11.80;;;1.20;99.90;;;;;;7378672;19;20337;-70
2022/03/24 02:09:52;;;;;;;15.70;11.57;;;1.10;99.90;;;;;;7381109;19;20400;-69
2022/03/24 02:12:18;;;;;;;11.27;8.83;;;1.10;99.90;;;;;;7379932;19;21044;-70
2022/03/24 02:14:44;;;;;;;11.55;8.82;;;1.00;99.90;;;;;;7360513;19;20367;-69
2022/03/24 02:17:10;;;;;;;13.15;10.45;;;1.10;99.90;;;;;;7378301;19;20354;-69
2022/03/24 02:19:38;;;;;;;14.30;11.07;;;1.10;99.90;;;;;;7380835;19;20317;-70
2022/03/24 02:22:16;;;;;;;15.60;11.30;;;1.10;99.90;;;;;;7379352;19;20427;-70
2022/03/24 02:24:41;;;;;;;16.73;11.60;;;1.00;99.90;;;;;;7280150;19;2004368;-69
2022/03/24 02:27:08;;;;;;;14.30;11.30;;;0.90;99.90;;;;;;7372281;19;20365;-69
2022/03/24 02:29:35;;;;;;;15.00;11.35;;;0.80;99.90;;;;;;7381522;19;20336;-71
2022/03/24 02:32:01;;;;;;;17.88;12.20;;;0.80;99.90;;;;;;7380471;19;20317;-71
2022/03/24 02:34:40;;;;;;;13.07;10.70;;;0.70;99.90;;;;;;7378663;19;20440;-70
2022/03/24 02:37:07;;;;;;;12.27;10.40;;;0.70;99.90;;;;;;7378714;19;20341;-69
2022/03/24 02:39:40;;;;;;;14.03;11.23;;;0.70;99.90;;;;;;7381372;19;20347;-70
2022/03/24 02:42:07;;;;;;;13.98;10.80;;;0.70;99.90;;;;;;7378612;19;21077;-70
2022/03/24 02:44:33;;;;;;;14.88;10.48;;;0.70;99.90;;;;;;7380593;19;20344;-70
2022/03/24 02:47:00;;;;;;;14.20;10.27;;;0.60;99.90;;;;;;7377017;19;20348;-69
2022/03/24 02:49:30;;;;;;;14.50;10.90;;;0.70;99.90;;;;;;7379434;19;21007;-70
2022/03/24 02:51:58;;;;;;;13.57;10.77;;;0.80;99.90;;;;;;7381111;19;20339;-69
2022/03/24 02:54:23;;;;;;;13.63;10.43;;;0.70;99.90;;;;;;7380606;19;20328;-69
2022/03/24 02:56:50;;;;;;;14.87;10.80;;;0.70;99.90;;;;;;7376879;19;20328;-70
2022/03/24 02:59:15;;;;;;;12.85;9.93;;;0.60;99.90;;;;;;7377423;19;20383;-70
2022/03/24 03:01:43;;;;;;;12.57;9.60;;;0.60;99.90;;;;;;7378959;19;20442;-69
2022/03/24 03:04:10;;;;;;;15.02;10.63;;;0.60;99.90;;;;;;7380051;19;20682;-70
2022/03/24 03:06:35;;;;;;;12.15;10.40;;;0.60;99.90;;;;;;7380152;19;20309;-70
2022/03/24 03:09:02;;;;;;;13.47;11.43;;;0.70;99.90;;;;;;7378000;19;20417;-69
2022/03/24 03:11:30;;;;;;;13.02;10.68;;;0.70;99.90;;;;;;7376365;19;20393;-70
2022/03/24 03:13:56;;;;;;;14.27;10.65;;;0.60;99.90;;;;;;7379239;19;20324;-70
2022/03/24 03:16:22;;;;;;;17.75;11.10;;;0.50;99.90;;;;;;7379894;19;20327;-70
2022/03/24 03:18:48;;;;;;;11.57;10.20;;;0.40;99.90;;;;;;7376608;19;20313;-69
2022/03/24 03:21:16;;;;;;;16.67;11.27;;;0.40;99.90;;;;;;7379089;19;20309;-70
2022/03/24 03:23:43;;;;;;;15.43;10.80;;;0.30;99.90;;;;;;7374131;19;20346;-69
2022/03/24 03:26:10;;;;;;;12.25;10.50;;;0.20;99.90;;;;;;7377277;19;20321;-70
2022/03/24 03:28:36;;;;;;;15.32;11.85;;;0.20;99.90;;;;;;7374035;19;20325;-68
2022/03/24 03:31:02;;;;;;;16.80;13.10;;;0.10;99.90;;;;;;7379366;19;20345;-69
2022/03/24 03:33:29;;;;;;;12.80;10.68;;;0.20;99.90;;;;;;7376365;19;20300;-69
2022/03/24 03:35:55;;;;;;;14.00;11.27;;;0.10;99.90;;;;;;7380447;19;20341;-69
2022/03/24 03:38:21;;;;;;;13.68;10.57;;;0.10;99.90;;;;;;7377119;19;20424;-69
2022/03/24 03:40:49;;;;;;;16.55;10.25;;;0.10;99.90;;;;;;7379507;19;20325;-69
2022/03/24 03:43:14;;;;;;;13.55;10.88;;;0.10;99.90;;;;;;7376478;19;20479;-69
2022/03/24 03:45:41;;;;;;;12.53;9.93;;;0.10;99.90;;;;;;7380318;19;20447;-69
2022/03/24 03:48:07;;;;;;;14.85;10.98;;;-0.10;99.90;;;;;;7375150;19;20328;-69
2022/03/24 03:50:33;;;;;;;13.40;10.18;;;0.00;99.90;;;;;;7377200;19;20678;-69
2022/03/24 03:52:58;;;;;;;12.95;9.85;;;0.00;99.90;;;;;;7377066;19;20316;-70
2022/03/24 03:55:24;;;;;;;12.03;10.03;;;0.10;99.90;;;;;;7380096;19;20308;-69
2022/03/24 03:57:50;;;;;;;12.93;11.30;;;0.10;99.90;;;;;;7376973;19;20873;-69
2022/03/24 04:03:04;;;;;;;11.13;8.95;;;0.10;99.90;;;;;;7273892;19;2004443;-71
2022/03/24 04:05:33;;;;;;;13.35;9.32;;;-0.10;99.90;;;;;;7380018;19;20341;-70
2022/03/24 04:07:59;;;;;;;14.77;9.45;;;-0.10;99.90;;;;;;7364842;19;21010;-69
2022/03/24 04:10:27;;;;;;;13.38;9.73;;;-0.10;99.90;;;;;;7379871;19;20352;-71
2022/03/24 04:12:54;;;;;;;10.93;8.93;;;-0.10;99.90;;;;;;7379421;19;20444;-69
2022/03/24 04:15:21;;;;;;;13.88;9.90;;;-0.20;99.90;;;;;;7369334;19;20356;-69
2022/03/24 04:17:49;;;;;;;12.00;9.27;;;-0.10;99.90;;;;;;7369712;19;20344;-69
2022/03/24 04:20:20;;;;;;;11.87;9.37;;;-0.10;99.90;;;;;;7378330;19;20357;-70
2022/03/24 04:22:49;;;;;;;9.98;8.70;;;-0.20;99.90;;;;;;7273414;19;2004612;-69
2022/03/24 04:25:15;;;;;;;15.55;10.55;;;-0.20;99.90;;;;;;7376838;19;20704;-69
2022/03/24 04:27:41;;;;;;;16.42;9.88;;;-0.10;99.90;;;;;;7375361;19;20872;-69
2022/03/24 04:30:08;;;;;;;13.90;9.52;;;-0.20;99.90;;;;;;7377052;19;20320;-70
2022/03/24 04:32:34;;;;;;;11.48;8.50;;;-0.30;99.90;;;;;;7378341;19;20356;-70
2022/03/24 04:35:00;;;;;;;10.93;8.40;;;-0.30;99.90;;;;;;7374701;19;20845;-69
2022/03/24 04:37:26;;;;;;;12.48;9.80;;;-0.20;99.90;;;;;;7376782;19;20316;-69
2022/03/24 04:39:52;;;;;;;13.80;9.87;;;-0.20;99.90;;;;;;7376584;19;20308;-70
2022/03/24 04:42:17;;;;;;;15.97;9.83;;;-0.30;99.90;;;;;;7375724;19;20345;-68
2022/03/24 04:44:43;;;;;;;12.35;9.43;;;-0.40;99.90;;;;;;7379185;19;20845;-68
2022/03/24 04:47:08;;;;;;;12.37;10.23;;;-0.40;99.90;;;;;;7374599;19;20374;-68
2022/03/24 04:49:34;;;;;;;13.15;9.70;;;-0.30;99.90;;;;;;7376688;19;20728;-67
2022/03/24 04:52:03;;;;;;;12.27;8.45;;;-0.40;99.90;;;;;;7373942;19;21252;-67
2022/03/24 04:54:29;;;;;;;15.25;9.77;;;-0.40;99.90;;;;;;7377657;19;20732;-68
2022/03/24 04:56:57;;;;;;;13.05;9.88;;;-0.40;99.90;;;;;;7371151;19;20391;-67
2022/03/24 04:59:22;;;;;;;19.15;10.95;;;-0.40;99.90;;;;;;7376106;19;20688;-67
2022/03/24 05:01:48;;;;;;;14.57;10.40;;;-0.50;99.90;;;;;;7375177;19;20334;-67
2022/03/24 05:04:15;;;;;;;17.38;10.85;;;-0.60;99.90;;;;;;7377246;19;20324;-67
2022/03/24 05:06:41;;;;;;;15.45;11.35;;;-0.80;99.90;;;;;;7374297;19;21229;-69
2022/03/24 05:09:07;;;;;;;12.63;9.82;;;-0.80;99.90;;;;;;7376597;19;20333;-68
2022/03/24 05:11:34;;;;;;;10.55;8.52;;;-0.90;99.90;;;;;;7377646;19;20857;-68
2022/03/24 05:13:59;;;;;;;16.80;10.40;;;-0.80;99.90;;;;;;7373553;19;20317;-68
2022/03/24 05:16:25;;;;;;;11.65;9.00;;;-0.90;99.90;;;;;;7373469;19;20884;-68
2022/03/24 05:18:51;;;;;;;10.00;7.93;;;-0.90;99.90;;;;;;7379344;19;20349;-68
2022/03/24 05:21:17;;;;;;;13.73;9.87;;;-0.90;99.90;;;;;;7376661;19;20331;-68
2022/03/24 05:23:42;;;;;;;21.40;9.48;;;-0.80;99.90;;;;;;7376121;19;20399;-68
2022/03/24 05:26:08;;;;;;;14.23;9.15;;;-0.80;99.90;;;;;;7379109;19;20956;-68
2022/03/24 05:28:33;;;;;;;13.53;8.57;;;-0.70;99.90;;;;;;7369813;19;20315;-67
2022/03/24 05:31:00;;;;;;;11.90;9.97;;;-0.80;99.90;;;;;;7375063;19;20345;-67
2022/03/24 05:33:26;;;;;;;11.50;9.20;;;-0.80;99.90;;;;;;7359789;19;20488;-67
2022/03/24 05:35:51;;;;;;;11.43;9.13;;;-0.70;99.90;;;;;;7384878;19;20356;-68
2022/03/24 05:38:17;;;;;;;11.97;9.40;;;-0.70;99.90;;;;;;7385322;19;20423;-68
2022/03/24 05:40:43;;;;;;;14.90;9.20;;;-0.70;99.90;;;;;;7382532;19;20345;-68
2022/03/24 05:43:09;;;;;;;13.90;9.65;;;-0.60;99.90;;;;;;7381106;19;20335;-68
2022/03/24 05:45:34;;;;;;;15.13;10.30;;;-0.50;99.90;;;;;;7386926;19;20344;-68
2022/03/24 05:48:00;;;;;;;14.40;11.52;;;-0.50;99.90;;;;;;7378299;19;20811;-68
2022/03/24 05:50:45;;;;;;;15.93;11.38;;;-0.50;99.90;;;;;;7382915;19;20333;-68
2022/03/24 05:53:14;;;;;;;15.40;11.95;;;-0.50;99.90;;;;;;7381280;19;20317;-68
2022/03/24 05:55:41;;;;;;;13.57;9.20;;;-0.50;99.90;;;;;;7382519;19;20301;-68
2022/03/24 05:58:07;;;;;;;13.70;8.82;;;-0.40;99.90;;;;;;7381528;19;20392;-68
2022/03/24 06:00:34;;;;;;;12.70;9.27;;;-0.30;99.90;;;;;;7382078;19;20357;-69
2022/03/24 06:03:01;;;;;;;16.58;12.30;;;-0.10;99.90;;;;;;7380675;19;20897;-68
2022/03/24 06:05:27;;;;;;;18.02;12.80;;;0.00;99.90;;;;;;7384009;19;20340;-69
2022/03/24 06:07:53;;;;;;;18.25;13.55;;;0.00;99.90;;;;;;7380791;19;20343;-69
2022/03/24 06:10:19;;;;;;;22.88;16.63;;;0.00;99.90;;;;;;7384030;19;21136;-68
2022/03/24 06:12:46;;;;;;;23.03;17.20;;;0.10;99.90;;;;;;7381065;19;20313;-68
2022/03/24 06:15:12;;;;;;;23.02;17.55;;;0.10;99.90;;;;;;7383502;19;20354;-68
2022/03/24 06:17:38;;;;;;;17.80;13.18;;;0.20;99.90;;;;;;7376790;19;20332;-68
2022/03/24 06:20:04;;;;;;;20.58;15.88;;;0.30;99.90;;;;;;7381444;19;20850;-68
2022/03/24 06:22:31;;;;;;;21.90;15.65;;;0.50;99.90;;;;;;7382512;19;20430;-68
2022/03/24 06:24:57;;;;;;;24.70;15.07;;;0.50;99.90;;;;;;7381164;19;20392;-69
2022/03/24 06:27:23;;;;;;;23.40;15.90;;;0.60;99.90;;;;;;7381538;19;20421;-69
2022/03/24 06:29:48;;;;;;;18.85;14.23;;;0.70;99.90;;;;;;7381952;19;20684;-69
2022/03/24 06:32:15;;;;;;;23.15;15.80;;;0.70;99.90;;;;;;7381825;19;20323;-69
2022/03/24 06:34:41;;;;;;;18.73;14.80;;;0.90;99.90;;;;;;7383070;19;20323;-69
2022/03/24 06:37:07;;;;;;;18.10;13.87;;;0.90;99.90;;;;;;7378340;19;20320;-68
2022/03/24 06:39:33;;;;;;;23.23;15.75;;;1.10;99.90;;;;;;7378687;19;20349;-68
2022/03/24 06:42:01;;;;;;;23.27;15.35;;;1.10;99.90;;;;;;7374877;19;20328;-68
2022/03/24 06:44:29;;;;;;;18.52;14.82;;;1.30;99.90;;;;;;7380660;19;20320;-69
2022/03/24 06:46:55;;;;;;;17.30;13.80;;;1.40;99.90;;;;;;7378113;19;20317;-69
2022/03/24 06:49:21;;;;;;;19.27;13.00;;;1.50;99.90;;;;;;7383345;19;20340;-68
2022/03/24 06:51:46;;;;;;;20.52;15.65;;;1.70;99.90;;;;;;7379869;19;20297;-68
2022/03/24 06:54:12;;;;;;;15.17;10.37;;;1.90;99.90;;;;;;7378523;19;20312;-68
2022/03/24 06:56:38;;;;;;;14.60;11.38;;;2.00;99.90;;;;;;7382134;19;20326;-68
2022/03/24 06:59:04;;;;;;;19.90;12.60;;;2.20;99.90;;;;;;7380134;19;20305;-69
2022/03/24 07:01:30;;;;;;;16.87;13.07;;;2.40;99.90;;;;;;7378536;19;20333;-68
2022/03/24 07:03:55;;;;;;;17.40;12.13;;;2.60;99.90;;;;;;7379832;19;20350;-68
2022/03/24 07:06:21;;;;;;;17.60;12.63;;;2.80;99.90;;;;;;7381927;19;20320;-67
2022/03/24 07:08:47;;;;;;;21.80;14.30;;;3.00;99.90;;;;;;7379008;19;20309;-68
2022/03/24 07:11:13;;;;;;;18.65;13.88;;;3.20;99.90;;;;;;7381906;19;20306;-68
2022/03/24 07:13:38;;;;;;;22.13;15.00;;;3.50;99.90;;;;;;7373377;19;20396;-68
2022/03/24 07:16:04;;;;;;;22.30;15.47;;;3.70;99.90;;;;;;7378423;19;20304;-68
2022/03/24 07:18:30;;;;;;;22.40;15.18;;;3.80;99.90;;;;;;7374425;19;20356;-68
2022/03/24 07:20:56;;;;;;;19.33;14.17;;;4.00;99.90;;;;;;7377692;19;20341;-69
2022/03/24 07:23:22;;;;;;;21.27;16.05;;;4.10;99.90;;;;;;7375509;19;20399;-68
2022/03/24 07:25:48;;;;;;;20.88;13.55;;;4.30;99.90;;;;;;7378287;19;20811;-68
2022/03/24 07:28:14;;;;;;;20.90;15.27;;;4.40;99.90;;;;;;7375859;19;20356;-69
2022/03/24 07:30:40;;;;;;;20.88;15.23;;;4.60;99.90;;;;;;7379872;19;20441;-68
2022/03/24 07:33:05;;;;;;;18.33;14.17;;;4.80;99.90;;;;;;7376791;19;21175;-69
2022/03/24 07:35:33;;;;;;;18.13;13.57;;;4.90;99.90;;;;;;7376727;19;21165;-68
2022/03/24 07:37:59;;;;;;;20.60;15.18;;;5.10;99.90;;;;;;7375464;19;20396;-69
2022/03/24 07:40:25;;;;;;;25.05;16.15;;;5.20;99.90;;;;;;7379178;19;20346;-68
2022/03/24 07:42:52;;;;;;;20.42;15.60;;;5.30;99.90;;;;;;7375421;19;20317;-69
2022/03/24 07:45:22;;;;;;;20.27;16.65;;;5.30;99.90;;;;;;7377378;19;20347;-69
2022/03/24 07:48:06;;;;;;;21.10;16.57;;;5.50;99.90;;;;;;7375158;19;21181;-68
2022/03/24 07:50:32;;;;;;;21.90;16.30;;;5.50;99.90;;;;;;7375452;19;20355;-69
2022/03/24 07:53:04;;;;;;;21.92;16.75;;;5.60;99.90;;;;;;7371761;19;20382;-69
2022/03/24 07:55:30;;;;;;;19.88;15.00;;;5.70;99.90;;;;;;7379986;19;20321;-69
2022/03/24 07:57:56;;;;;;;21.10;15.93;;;5.90;99.90;;;;;;7372463;19;20356;-69
2022/03/24 08:00:22;;;;;;;22.05;16.33;;;5.90;99.90;;;;;;7375385;19;20348;-69
2022/03/24 08:02:52;;;;;;;21.48;15.60;;;6.00;99.90;;;;;;7355714;19;20944;-71
2022/03/24 08:05:18;;;;;;;22.17;16.70;;;6.20;99.90;;;;;;7375968;19;20356;-71
2022/03/24 08:07:43;;;;;;;19.53;14.97;;;6.20;99.90;;;;;;7372350;19;20320;-69
2022/03/24 08:10:09;;;;;;;27.55;17.27;;;6.40;99.90;;;;;;7378045;19;20316;-69
2022/03/24 08:12:35;;;;;;;24.50;17.50;;;6.50;99.90;;;;;;7369972;19;20344;-69
2022/03/24 08:15:01;;;;;;;26.13;17.63;;;6.60;99.90;;;;;;7376369;19;20837;-69
2022/03/24 08:17:26;;;;;;;23.38;18.00;;;6.60;99.90;;;;;;7375581;19;20404;-70
2022/03/24 08:19:52;;;;;;;24.40;17.33;;;6.80;99.90;;;;;;7376205;19;20328;-69
2022/03/24 08:22:18;;;;;;;21.43;14.47;;;6.90;99.90;;;;;;7378623;19;20356;-69
2022/03/24 08:24:43;;;;;;;19.48;15.88;;;7.00;99.90;;;;;;7375842;19;20865;-69
2022/03/24 08:27:09;;;;;;;21.00;15.35;;;7.10;99.90;;;;;;7372445;19;20382;-69
2022/03/24 08:29:35;;;;;;;21.57;16.20;;;7.20;99.90;;;;;;7378021;19;20301;-69
2022/03/24 08:32:00;;;;;;;20.83;16.45;;;7.20;99.90;;;;;;7374785;19;20328;-70
2022/03/24 08:34:26;;;;;;;23.93;15.17;;;7.30;99.90;;;;;;7378771;19;20320;-69
2022/03/24 08:36:52;;;;;;;28.40;18.83;;;7.40;99.90;;;;;;7375883;19;20361;-69
2022/03/24 08:39:17;;;;;;;20.03;15.97;;;7.50;99.90;;;;;;7375185;19;20341;-69
2022/03/24 08:41:43;;;;;;;22.80;16.67;;;7.60;99.90;;;;;;7376217;19;20345;-69
2022/03/24 08:44:10;;;;;;;22.60;16.95;;;7.70;99.90;;;;;;7379017;19;20313;-68
2022/03/24 08:46:36;;;;;;;27.35;18.52;;;7.70;99.90;;;;;;7378595;19;20364;-70
2022/03/24 08:49:01;;;;;;;22.92;16.13;;;7.90;99.90;;;;;;7374867;19;20657;-69
2022/03/24 08:51:27;;;;;;;25.58;18.55;;;8.00;99.90;;;;;;7378570;19;20333;-69
2022/03/24 08:53:53;;;;;;;26.17;18.98;;;8.10;99.90;;;;;;7374963;19;20324;-69
2022/03/24 08:56:19;;;;;;;26.87;18.57;;;8.30;99.90;;;;;;7379725;19;20352;-69
2022/03/24 08:58:44;;;;;;;21.38;16.88;;;8.30;99.90;;;;;;7376050;19;20969;-70
2022/03/24 09:01:10;;;;;;;23.67;17.13;;;8.40;99.90;;;;;;7376827;19;20325;-69
2022/03/24 09:03:37;;;;;;;27.15;18.38;;;8.40;99.90;;;;;;7378363;19;20805;-69
2022/03/24 09:06:03;;;;;;;25.77;17.33;;;8.50;99.90;;;;;;7379777;19;20332;-69
2022/03/24 09:08:28;;;;;;;24.90;18.88;;;8.70;99.90;;;;;;7378027;19;20329;-70
2022/03/24 09:10:55;;;;;;;23.47;17.70;;;8.70;99.90;;;;;;7387195;19;21333;-70
2022/03/24 09:13:20;;;;;;;26.90;19.83;;;8.90;99.90;;;;;;7377027;19;20356;-70
2022/03/24 09:15:46;;;;;;;29.40;18.70;;;9.00;99.90;;;;;;7361628;19;20341;-70
2022/03/24 09:18:13;;;;;;;25.67;19.23;;;9.10;99.90;;;;;;7380628;19;20340;-70
2022/03/24 09:20:39;;;;;;;26.58;19.40;;;9.20;99.90;;;;;;7383450;19;20327;-70
2022/03/24 09:23:05;;;;;;;27.13;20.40;;;9.30;99.90;;;;;;7381065;19;20305;-70
2022/03/24 09:25:38;;;;;;;26.57;19.30;;;9.50;99.90;;;;;;7357531;19;20337;-70
2022/03/24 09:28:08;;;;;;;26.63;18.63;;;9.60;99.90;;;;;;7376252;19;20375;-70
2022/03/24 09:30:34;;;;;;;29.33;20.47;;;9.70;99.90;;;;;;7381969;19;20292;-71
2022/03/24 09:33:00;;;;;;;29.93;20.07;;;9.90;99.90;;;;;;7382178;19;20325;-70
2022/03/24 09:35:25;;;;;;;28.27;19.70;;;10.00;99.90;;;;;;7385724;19;20358;-70
2022/03/24 09:37:51;;;;;;;29.67;20.60;;;10.10;99.90;;;;;;7381979;19;20323;-70
2022/03/24 09:40:17;;;;;;;25.45;19.38;;;10.30;99.90;;;;;;7383781;19;20327;-70
2022/03/24 09:42:42;;;;;;;27.90;19.93;;;10.40;99.90;;;;;;7383778;19;20316;-70
2022/03/24 09:45:10;;;;;;;24.25;17.58;;;10.70;99.90;;;;;;7383167;19;21028;-70
2022/03/24 09:47:36;;;;;;;25.30;19.33;;;10.80;99.90;;;;;;7366459;19;20362;-70
2022/03/24 09:50:02;;;;;;;22.33;17.57;;;10.90;99.90;;;;;;7385354;19;20324;-70
2022/03/24 09:52:27;;;;;;;27.73;18.65;;;11.10;99.90;;;;;;7384667;19;20328;-70
2022/03/24 09:54:54;;;;;;;23.57;18.40;;;11.10;99.90;;;;;;7383477;19;20344;-70
2022/03/24 09:57:20;;;;;;;25.58;19.23;;;11.10;99.90;;;;;;7380536;19;20304;-70
2022/03/24 09:59:46;;;;;;;28.73;18.60;;;11.20;99.90;;;;;;7383725;19;21316;-70
2022/03/24 10:02:12;;;;;;;27.42;18.77;;;11.30;99.90;;;;;;7379149;19;20384;-71
2022/03/24 10:04:51;;;;;;;27.47;17.97;;;11.30;99.90;;;;;;7381724;19;20320;-71
2022/03/24 10:07:18;;;;;;;24.90;16.88;;;11.60;99.90;;;;;;7277204;19;2004457;-70
2022/03/24 10:09:48;;;;;;;26.20;18.45;;;11.70;99.90;;;;;;7382295;19;20409;-70
2022/03/24 10:12:21;;;;;;;26.10;17.45;;;12.00;99.90;;;;;;7379868;19;20868;-70
2022/03/24 10:15:00;;;;;;;23.80;16.80;;;12.30;99.90;;;;;;7379283;19;20308;-71
2022/03/24 10:17:26;;;;;;;27.75;19.17;;;12.70;99.90;;;;;;7378955;19;20680;-70
2022/03/24 10:19:57;;;;;;;26.53;19.13;;;12.60;98.30;;;;;;7377759;19;20295;-70
2022/03/24 10:22:23;;;;;;;26.45;17.42;;;12.70;98.10;;;;;;7376933;19;20424;-69
2022/03/24 10:24:52;;;;;;;28.27;19.20;;;13.10;99.00;;;;;;7377197;19;20327;-70
2022/03/24 10:27:28;;;;;;;26.42;17.05;;;13.10;97.30;;;;;;7378885;19;20321;-70
2022/03/24 10:29:55;;;;;;;25.42;18.13;;;13.40;97.60;;;;;;7380695;19;20328;-71
2022/03/24 10:32:22;;;;;;;23.70;17.88;;;13.60;94.90;;;;;;7377998;19;20327;-71
2022/03/24 10:34:51;;;;;;;21.23;14.63;;;13.80;95.60;;;;;;7378565;19;20317;-71
2022/03/24 10:37:19;;;;;;;25.40;17.98;;;14.20;96.10;;;;;;7379622;19;20328;-71
2022/03/24 10:40:07;;;;;;;26.95;16.70;;;14.70;95.80;;;;;;7381738;19;20307;-71
2022/03/24 10:42:35;;;;;;;24.00;16.52;;;15.30;94.70;;;;;;7276672;19;2004353;-71
2022/03/24 10:45:21;;;;;;;22.17;15.82;;;15.80;94.30;;;;;;7380429;19;21053;-72
2022/03/24 10:47:47;;;;;;;23.55;16.95;;;16.30;91.90;;;;;;7279642;19;2004566;-71
2022/03/24 10:50:20;;;;;;;24.87;16.23;;;16.40;89.50;;;;;;7382498;19;20846;-71
2022/03/24 10:52:47;;;;;;;20.55;15.02;;;16.30;86.90;;;;;;7379375;19;20341;-71
2022/03/24 10:55:12;;;;;;;26.38;16.52;;;16.50;87.00;;;;;;7383467;19;20667;-72
2022/03/24 10:57:38;;;;;;;26.93;16.83;;;16.60;83.40;;;;;;7377790;19;20698;-72
2022/03/24 11:00:04;;;;;;;24.17;15.88;;;16.60;80.40;;;;;;7382114;19;20316;-71
2022/03/24 11:02:31;;;;;;;18.90;15.18;;;16.70;78.30;;;;;;7376959;19;20328;-72
2022/03/24 11:05:01;;;;;;;23.13;14.82;;;17.00;81.30;;;;;;7380620;19;20317;-72
2022/03/24 11:07:27;;;;;;;22.65;15.20;;;17.40;79.40;;;;;;7382188;19;20345;-72
2022/03/24 11:09:52;;;;;;;19.80;14.10;;;17.70;76.70;;;;;;7380758;19;20346;-72
2022/03/24 11:12:31;;;;;;;20.77;14.10;;;17.70;68.30;;;;;;7368315;19;20335;-72
2022/03/24 11:15:07;;;;;;;17.48;13.48;;;17.70;69.60;;;;;;7276330;19;2004433;-71
2022/03/24 11:17:37;;;;;;;20.88;14.20;;;17.70;66.00;;;;;;7273022;19;2004508;-72
2022/03/24 11:20:06;;;;;;;17.33;13.30;;;17.70;66.30;;;;;;7378961;19;20699;-71
2022/03/24 11:22:51;;;;;;;16.67;12.23;;;18.10;69.80;;;;;;7381612;19;20297;-72
2022/03/24 11:25:17;;;;;;;16.55;11.50;;;18.80;70.10;;;;;;7382863;19;20743;-71
2022/03/24 11:27:43;;;;;;;14.18;11.10;;;18.90;59.20;;;;;;7377882;19;20321;-71
2022/03/24 11:30:10;;;;;;;17.13;12.27;;;18.50;57.80;;;;;;7379968;19;20304;-72
2022/03/24 11:32:36;;;;;;;16.43;12.13;;;18.10;58.40;;;;;;7377387;19;20308;-71
2022/03/24 11:35:05;;;;;;;18.05;12.15;;;18.40;59.10;;;;;;7378297;19;20312;-72
2022/03/24 11:37:31;;;;;;;14.35;11.38;;;18.40;59.00;;;;;;7377398;19;20870;-72
2022/03/24 11:40:09;;;;;;;14.20;10.60;;;18.30;55.60;;;;;;7379052;19;20352;-72
2022/03/24 11:42:53;;;;;;;16.08;11.55;;;18.60;55.70;;;;;;7377889;19;20404;-71
2022/03/24 11:45:22;;;;;;;17.15;11.68;;;18.60;54.70;;;;;;7381089;19;20308;-72
2022/03/24 11:47:54;;;;;;;15.18;12.30;;;18.70;56.00;;;;;;7378078;19;20422;-72
2022/03/24 11:50:56;;;;;;;16.83;11.30;;;18.50;54.30;;;;;;7379728;19;20305;-71
2022/03/24 11:53:25;;;;;;;18.65;12.35;;;19.70;58.50;;;;;;7273458;19;2004491;-73
2022/03/24 11:56:03;;;;;;;14.23;10.83;;;19.90;54.10;;;;;;7382039;19;20288;-72
2022/03/24 11:58:30;;;;;;;17.02;10.77;;;20.20;54.50;;;;;;7378789;19;20312;-72
2022/03/24 12:00:56;;;;;;;12.35;10.02;;;20.10;51.60;;;;;;7377201;19;20711;-72
2022/03/24 12:03:48;;;;;;;16.95;10.80;;;19.90;51.40;;;;;;7374219;19;20344;-72
2022/03/24 12:06:16;;;;;;;13.27;10.25;;;20.10;52.20;;;;;;7379390;19;20362;-72
2022/03/24 12:09:03;;;;;;;16.75;11.25;;;20.40;53.60;;;;;;7376399;19;20359;-72
2022/03/24 12:11:32;;;;;;;15.50;9.60;;;21.00;53.10;;;;;;7378729;19;20388;-73
2022/03/24 12:14:03;;;;;;;13.38;9.85;;;21.20;51.20;;;;;;7377812;19;21190;-73
2022/03/24 12:16:29;;;;;;;14.88;10.52;;;21.10;49.80;;;;;;7379832;19;20425;-72
2022/03/24 12:18:55;;;;;;;17.40;9.87;;;21.10;48.20;;;;;;7377875;19;20364;-72
2022/03/24 12:21:24;;;;;;;15.40;9.40;;;20.60;44.80;;;;;;7378813;19;20337;-73
2022/03/24 12:24:11;;;;;;;17.23;10.55;;;20.40;46.90;;;;;;7377485;19;20316;-73
2022/03/24 12:26:47;;;;;;;14.90;10.05;;;20.30;46.30;;;;;;7378899;19;20392;-72
2022/03/24 12:29:20;;;;;;;13.10;10.30;;;19.90;46.70;;;;;;7376653;19;20650;-72
2022/03/24 12:32:14;;;;;;;15.00;9.48;;;19.50;46.60;;;;;;7375440;19;20317;-73
2022/03/24 12:34:40;;;;;;;12.55;9.57;;;20.30;51.00;;;;;;7378601;19;20305;-73
2022/03/24 12:37:06;;;;;;;12.73;9.70;;;21.40;47.20;;;;;;7377528;19;20421;-73
2022/03/24 12:39:37;;;;;;;12.95;9.63;;;21.70;48.40;;;;;;7377780;19;20348;-73